Time;durP1;ratioP1;P1;durP2;ratioP2;P2;SDS_P1;SDS_P2;PMS_P1;PMS_P2;Temp;Humidity;BMP_temperature;BMP_pressure;BME280_temperature;BME280_humidity;BME280_pressure;Samples;Min_cycle;Max_cycle;Signal;HPM_P1;HPM_P2
2023/05/22 00:01:48;;;;;;;;;;;;;;;18.39;59.70;99177.84;5052198;28;19913;-76
2023/05/22 00:04:20;;;;;;;;;;;;;;;18.39;60.05;99188.53;5053375;28;20006;-78
2023/05/22 00:06:45;;;;;;;;;;;;;;;18.39;60.06;99188.53;5053335;28;20437;-76
2023/05/22 00:09:11;;;;;;;;;;;;;;;18.39;60.06;99185.84;5053232;28;20007;-77
2023/05/22 00:11:36;;;;;;;;;;;;;;;18.40;60.04;99194.69;5053261;28;19915;-76
2023/05/22 00:14:01;;;;;;;;;;;;;;;18.39;60.45;99187.72;5053239;28;19963;-77
2023/05/22 00:16:26;;;;;;;;;;;;;;;18.39;60.14;99187.72;5053041;28;19909;-76
2023/05/22 00:18:52;;;;;;;;;;;;;;;18.40;59.70;99182.13;5052847;28;19908;-77
2023/05/22 00:21:18;;;;;;;;;;;;;;;18.43;60.33;99186.19;5053002;28;19917;-77
2023/05/22 00:23:44;;;;;;;;;;;;;;;18.42;60.18;99181.88;5052951;28;19920;-77
2023/05/22 00:26:10;;;;;;;;;;;;;;;18.39;60.49;99177.00;5052811;28;19912;-76
2023/05/22 00:28:35;;;;;;;;;;;;;;;18.37;59.87;99174.59;5053086;28;20447;-77
2023/05/22 00:31:00;;;;;;;;;;;;;;;18.38;60.35;99180.75;5053097;28;19909;-76
2023/05/22 00:33:25;;;;;;;;;;;;;;;18.35;60.01;99176.69;5053204;28;19908;-77
2023/05/22 00:35:51;;;;;;;;;;;;;;;18.34;60.48;99185.75;5053072;28;20332;-76
2023/05/22 00:38:27;;;;;;;;;;;;;;;18.36;60.62;99178.31;5052806;28;20357;-76
2023/05/22 00:40:52;;;;;;;;;;;;;;;18.38;60.03;99186.09;5052783;28;19916;-77
2023/05/22 00:43:17;;;;;;;;;;;;;;;18.32;60.78;99184.34;5052627;28;19908;-76
2023/05/22 00:45:44;;;;;;;;;;;;;;;18.30;60.68;99184.59;5052429;28;19934;-77
2023/05/22 00:48:11;;;;;;;;;;;;;;;18.29;61.05;99190.19;5052468;28;19909;-76
2023/05/22 00:50:36;;;;;;;;;;;;;;;18.22;60.81;99190.31;5052498;28;20328;-76
2023/05/22 00:53:01;;;;;;;;;;;;;;;18.22;60.82;99186.81;5052379;28;19909;-76
2023/05/22 00:55:27;;;;;;;;;;;;;;;18.23;60.80;99185.78;5052309;28;19955;-77
2023/05/22 00:57:52;;;;;;;;;;;;;;;18.22;61.13;99186.81;5052264;28;19962;-76
2023/05/22 01:00:18;;;;;;;;;;;;;;;18.22;60.66;99184.97;5052168;28;19951;-77
2023/05/22 01:02:43;;;;;;;;;;;;;;;18.15;61.49;99175.47;5052085;28;19950;-77
2023/05/22 01:05:11;;;;;;;;;;;;;;;18.09;61.68;99180.69;5051302;28;19966;-77
2023/05/22 01:07:56;;;;;;;;;;;;;;;18.08;61.63;99186.28;5052146;28;19916;-76
2023/05/22 01:10:21;;;;;;;;;;;;;;;18.08;60.72;99186.28;5052182;28;20360;-77
2023/05/22 01:12:54;;;;;;;;;;;;;;;18.10;61.68;99181.50;5052012;28;19915;-77
2023/05/22 01:15:19;;;;;;;;;;;;;;;18.11;60.96;99177.78;5052075;28;19915;-76
2023/05/22 01:17:48;;;;;;;;;;;;;;;18.08;61.43;99171.06;5052051;28;19909;-76
2023/05/22 01:20:19;;;;;;;;;;;;;;;18.12;61.08;99170.59;5052095;28;19916;-76
2023/05/22 01:23:02;;;;;;;;;;;;;;;18.10;60.97;99176.97;5051960;28;19932;-76
2023/05/22 01:25:33;;;;;;;;;;;;;;;18.10;60.89;99171.63;5051864;28;20396;-77
2023/05/22 01:28:17;;;;;;;;;;;;;;;18.12;61.21;99170.59;5050531;28;19917;-76
2023/05/22 01:30:43;;;;;;;;;;;;;;;18.13;60.95;99175.69;5051936;28;20457;-77
2023/05/22 01:33:08;;;;;;;;;;;;;;;18.16;61.34;99167.22;5051772;28;19955;-77
2023/05/22 01:35:36;;;;;;;;;;;;;;;18.19;61.16;99171.28;5051762;28;19916;-76
2023/05/22 01:38:02;;;;;;;;;;;;;;;18.22;60.87;99182.28;5051816;28;20460;-76
2023/05/22 01:40:27;;;;;;;;;;;;;;;18.25;60.87;99181.81;5051866;28;19988;-77
2023/05/22 01:42:53;;;;;;;;;;;;;;;18.25;60.99;99176.47;5050743;28;20386;-77
2023/05/22 01:45:19;;;;;;;;;;;;;;;18.27;60.53;99174.38;5050461;28;19919;-78
2023/05/22 01:47:45;;;;;;;;;;;;;;;18.27;60.34;99162.88;5051725;28;19915;-76
2023/05/22 01:50:10;;;;;;;;;;;;;;;18.28;60.52;99172.53;5051880;28;19908;-76
2023/05/22 01:52:43;;;;;;;;;;;;;;;18.26;60.31;99170.09;5051445;28;19909;-77
2023/05/22 01:55:16;;;;;;;;;;;;;;;18.25;60.40;99175.66;5051643;28;19904;-76
2023/05/22 01:58:16;;;;;;;;;;;;;;;18.26;60.34;99169.28;5051657;28;20356;-77
2023/05/22 02:00:44;;;;;;;;;;;;;;;18.26;60.59;99162.06;5029802;28;19912;-77
2023/05/22 02:03:15;;;;;;;;;;;;;;;18.28;60.45;99161.84;5047298;28;19916;-76
2023/05/22 02:05:41;;;;;;;;;;;;;;;18.26;60.68;99163.94;5049996;28;19912;-76
2023/05/22 02:08:07;;;;;;;;;;;;;;;18.26;60.52;99163.94;5051449;28;19948;-76
2023/05/22 02:10:32;;;;;;;;;;;;;;;18.22;60.51;99163.59;5051311;28;19915;-78
2023/05/22 02:12:58;;;;;;;;;;;;;;;18.19;60.73;99163.25;5050198;28;19940;-76
2023/05/22 02:15:24;;;;;;;;;;;;;;;18.17;60.56;99162.69;5051438;28;19908;-77
2023/05/22 02:17:51;;;;;;;;;;;;;;;18.13;60.61;99157.00;5055384;28;20381;-76
2023/05/22 02:20:17;;;;;;;;;;;;;;;18.12;60.97;99167.91;5055422;28;19908;-76
2023/05/22 02:22:43;;;;;;;;;;;;;;;18.12;60.60;99167.91;5055653;28;20473;-77
2023/05/22 02:25:13;;;;;;;;;;;;;;;18.13;60.73;99166.88;5054002;28;19912;-76
2023/05/22 02:27:48;;;;;;;;;;;;;;;18.12;61.02;99162.56;5055535;28;20322;-77
2023/05/22 02:30:14;;;;;;;;;;;;;;;18.11;60.39;99159.09;5055977;28;19908;-76
2023/05/22 02:32:40;;;;;;;;;;;;;;;18.12;60.37;99163.38;5055814;28;19974;-77
2023/05/22 02:35:05;;;;;;;;;;;;;;;18.09;60.41;99164.66;5056245;28;20378;-77
2023/05/22 02:37:31;;;;;;;;;;;;;;;18.08;60.83;99167.56;5056010;28;19995;-76
2023/05/22 02:39:56;;;;;;;;;;;;;;;18.10;60.41;99171.63;5055878;28;19954;-76
2023/05/22 02:42:22;;;;;;;;;;;;;;;18.13;60.43;99161.53;5055327;28;19916;-76
2023/05/22 02:44:47;;;;;;;;;;;;;;;18.10;60.14;99163.63;5054804;28;20389;-77
2023/05/22 02:47:13;;;;;;;;;;;;;;;18.13;59.52;99167.69;5054790;28;19987;-77
2023/05/22 02:49:38;;;;;;;;;;;;;;;18.11;59.66;99172.44;5054727;28;19909;-77
2023/05/22 02:52:03;;;;;;;;;;;;;;;18.11;59.79;99161.75;5054867;28;19959;-77
2023/05/22 02:54:29;;;;;;;;;;;;;;;18.13;59.56;99158.84;5053292;28;20309;-76
2023/05/22 02:56:54;;;;;;;;;;;;;;;18.16;59.45;99158.38;5053524;28;19913;-76
2023/05/22 02:59:19;;;;;;;;;;;;;;;18.15;59.24;99160.25;5053382;28;19909;-76
2023/05/22 03:01:47;;;;;;;;;;;;;;;18.11;59.25;99164.44;5054681;28;19909;-76
2023/05/22 03:04:12;;;;;;;;;;;;;;;18.09;59.47;99161.19;5054266;28;19901;-77
2023/05/22 03:06:38;;;;;;;;;;;;;;;18.12;59.24;99150.03;5054264;28;20051;-76
2023/05/22 03:09:03;;;;;;;;;;;;;;;18.14;58.98;99155.13;5054456;28;19915;-76
2023/05/22 03:11:29;;;;;;;;;;;;;;;18.17;58.87;99166.16;5054332;28;19908;-76
2023/05/22 03:13:54;;;;;;;;;;;;;;;18.18;58.50;99156.28;5054288;28;19908;-76
2023/05/22 03:16:20;;;;;;;;;;;;;;;18.20;58.45;99156.84;5054313;28;19912;-76
2023/05/22 03:18:45;;;;;;;;;;;;;;;18.21;58.13;99161.97;5054434;28;19915;-77
2023/05/22 03:21:10;;;;;;;;;;;;;;;18.24;58.51;99156.16;5054328;28;20356;-77
2023/05/22 03:23:36;;;;;;;;;;;;;;;18.25;57.89;99159.63;5054044;28;19909;-76
2023/05/22 03:26:01;;;;;;;;;;;;;;;18.26;57.79;99162.06;5053943;28;19913;-77
2023/05/22 03:28:26;;;;;;;;;;;;;;;18.29;57.68;99163.44;5052946;28;20313;-76
2023/05/22 03:30:51;;;;;;;;;;;;;;;18.31;57.30;99158.69;5054018;28;19908;-77
2023/05/22 03:33:17;;;;;;;;;;;;;;;18.30;57.20;99159.72;5053975;28;19901;-76
2023/05/22 03:35:43;;;;;;;;;;;;;;;18.32;56.84;99162.97;5054036;28;20412;-76
2023/05/22 03:38:08;;;;;;;;;;;;;;;18.32;56.68;99161.13;5053902;28;19952;-77
2023/05/22 03:40:33;;;;;;;;;;;;;;;18.34;56.17;99158.22;5053843;28;19940;-77
2023/05/22 03:42:59;;;;;;;;;;;;;;;18.35;56.01;99159.84;5054813;28;19909;-76
2023/05/22 03:45:24;;;;;;;;;;;;;;;18.38;55.73;99164.69;5054505;28;19982;-76
2023/05/22 03:47:50;;;;;;;;;;;;;;;18.42;56.03;99161.31;5054208;28;19948;-77
2023/05/22 03:50:15;;;;;;;;;;;;;;;18.46;56.54;99166.19;5054260;28;20369;-76
2023/05/22 03:52:40;;;;;;;;;;;;;;;18.43;55.74;99165.59;5053272;28;19912;-76
2023/05/22 03:55:06;;;;;;;;;;;;;;;18.48;56.04;99164.09;5054210;28;19947;-77
2023/05/22 03:57:31;;;;;;;;;;;;;;;18.47;55.88;99167.81;5054520;28;19908;-78
2023/05/22 04:00:03;;;;;;;;;;;;;;;18.47;55.70;99173.16;5054342;28;19908;-77
2023/05/22 04:02:28;;;;;;;;;;;;;;;18.49;55.68;99168.38;5054560;28;19908;-76
2023/05/22 04:04:54;;;;;;;;;;;;;;;18.51;55.80;99174.31;5054077;28;19996;-77
2023/05/22 04:07:19;;;;;;;;;;;;;;;18.55;56.01;99176.25;5054435;28;20270;-76
2023/05/22 04:09:44;;;;;;;;;;;;;;;18.56;55.61;99172.53;5054413;28;20016;-77
2023/05/22 04:12:10;;;;;;;;;;;;;;;18.55;55.76;99176.25;5054285;28;19909;-76
2023/05/22 04:14:35;;;;;;;;;;;;;;;18.56;55.54;99180.56;5054061;28;20347;-77
2023/05/22 04:17:00;;;;;;;;;;;;;;;18.58;55.71;99177.66;5052927;28;20393;-77
2023/05/22 04:19:26;;;;;;;;;;;;;;;18.57;55.47;99170.69;5054065;28;19908;-76
2023/05/22 04:21:53;;;;;;;;;;;;;;;18.56;55.69;99175.22;5054382;28;19915;-78
2023/05/22 04:24:19;;;;;;;;;;;;;;;18.59;55.75;99181.97;5053723;28;19966;-76
2023/05/22 04:26:45;;;;;;;;;;;;;;;18.59;55.96;99188.13;5053742;28;19908;-78
2023/05/22 04:29:13;;;;;;;;;;;;;;;18.61;55.65;99188.72;5053491;28;20309;-77
2023/05/22 04:31:38;;;;;;;;;;;;;;;18.63;56.00;99188.50;5053216;28;19912;-77
2023/05/22 04:34:04;;;;;;;;;;;;;;;18.66;55.66;99188.03;5053490;28;19976;-76
2023/05/22 04:36:29;;;;;;;;;;;;;;;18.71;55.54;99188.94;5052121;28;19967;-76
2023/05/22 04:38:55;;;;;;;;;;;;;;;18.75;55.10;99194.59;5053628;28;20008;-76
2023/05/22 04:41:26;;;;;;;;;;;;;;;18.78;54.66;99196.81;5053985;28;19948;-77
2023/05/22 04:43:52;;;;;;;;;;;;;;;18.82;54.95;99199.81;5052835;28;20420;-77
2023/05/22 04:46:18;;;;;;;;;;;;;;;18.86;54.80;99204.44;5052663;28;19991;-76
2023/05/22 04:48:43;;;;;;;;;;;;;;;18.88;54.95;99199.66;5052968;28;19992;-77
2023/05/22 04:51:08;;;;;;;;;;;;;;;18.91;54.77;99201.84;5052824;28;19931;-77
2023/05/22 04:53:34;;;;;;;;;;;;;;;18.93;54.69;99205.09;5052724;28;19962;-77
2023/05/22 04:56:00;;;;;;;;;;;;;;;18.93;54.41;99213.13;5053071;28;19983;-77
2023/05/22 04:58:28;;;;;;;;;;;;;;;18.96;54.55;99212.66;5053282;28;19909;-77
2023/05/22 05:00:53;;;;;;;;;;;;;;;18.97;54.57;99221.47;5053128;28;20278;-76
2023/05/22 05:03:19;;;;;;;;;;;;;;;18.98;54.71;99229.28;5052825;28;19996;-76
2023/05/22 05:05:44;;;;;;;;;;;;;;;19.00;54.63;99234.38;5053413;28;19935;-77
2023/05/22 05:08:10;;;;;;;;;;;;;;;19.00;54.78;99237.88;5053414;28;20325;-76
2023/05/22 05:10:35;;;;;;;;;;;;;;;19.00;55.02;99231.72;5053186;28;19909;-76
2023/05/22 05:13:01;;;;;;;;;;;;;;;19.02;55.29;99241.13;5053130;28;20385;-76
2023/05/22 05:15:26;;;;;;;;;;;;;;;19.03;54.75;99240.06;5051962;28;19938;-76
2023/05/22 05:17:52;;;;;;;;;;;;;;;19.02;54.49;99246.47;5053296;28;19913;-76
2023/05/22 05:20:17;;;;;;;;;;;;;;;19.08;54.81;99241.22;5052757;28;20003;-77
2023/05/22 05:22:44;;;;;;;;;;;;;;;19.09;54.89;99245.50;5052822;28;20385;-77
2023/05/22 05:25:10;;;;;;;;;;;;;;;19.09;54.51;99242.84;5052761;28;20365;-76
2023/05/22 05:27:35;;;;;;;;;;;;;;;19.10;54.87;99233.75;5052555;28;19952;-76
2023/05/22 05:30:01;;;;;;;;;;;;;;;19.16;54.81;99235.47;5052660;28;20381;-76
2023/05/22 05:32:26;;;;;;;;;;;;;;;19.21;54.80;99238.22;5052674;28;19987;-76
2023/05/22 05:34:51;;;;;;;;;;;;;;;19.24;54.94;99235.88;5052563;28;19951;-77
2023/05/22 05:37:17;;;;;;;;;;;;;;;19.29;54.92;99237.81;5060000;28;20377;-77
2023/05/22 05:39:42;;;;;;;;;;;;;;;19.25;54.47;99234.00;5067755;28;19920;-76
2023/05/22 05:42:07;;;;;;;;;;;;;;;19.27;54.36;99237.25;5068133;28;19920;-76
2023/05/22 05:44:32;;;;;;;;;;;;;;;19.29;54.09;99238.63;5068630;28;19916;-77
2023/05/22 05:46:58;;;;;;;;;;;;;;;19.34;54.35;99240.63;5061522;28;20373;-77
2023/05/22 05:49:23;;;;;;;;;;;;;;;19.43;54.17;99241.03;5072149;28;19931;-77
2023/05/22 05:51:48;;;;;;;;;;;;;;;19.51;54.22;99254.03;5059826;28;19909;-77
2023/05/22 05:54:14;;;;;;;;;;;;;;;19.60;53.91;99260.63;5059142;28;20381;-76
2023/05/22 05:56:39;;;;;;;;;;;;;;;19.61;53.57;99257.69;5058805;28;19943;-76
2023/05/22 05:59:04;;;;;;;;;;;;;;;19.64;53.60;99253.72;5058997;28;19995;-76
2023/05/22 06:01:33;;;;;;;;;;;;;;;19.65;53.33;99261.50;5063714;28;19912;-77
2023/05/22 06:04:01;;;;;;;;;;;;;;;19.65;52.26;99253.47;5067360;28;19931;-77
2023/05/22 06:06:28;;;;;;;;;;;;;;;19.70;52.85;99257.28;5069112;28;19916;-76
2023/05/22 06:08:54;;;;;;;;;;;;;;;19.72;52.41;99261.34;5066786;28;19924;-78
2023/05/22 06:11:19;;;;;;;;;;;;;;;19.67;52.48;99259.41;5064046;28;19974;-77
2023/05/22 06:13:44;;;;;;;;;;;;;;;19.72;53.23;99260.53;5074127;28;20380;-77
2023/05/22 06:16:09;;;;;;;;;;;;;;;19.75;52.88;99262.72;5075938;28;19912;-77
2023/05/22 06:18:35;;;;;;;;;;;;;;;19.79;51.94;99259.31;5075470;28;19919;-78
2023/05/22 06:21:01;;;;;;;;;;;;;;;19.83;51.99;99268.47;5071345;28;19986;-78
2023/05/22 06:23:26;;;;;;;;;;;;;;;19.89;51.55;99267.50;5074224;28;20428;-78
2023/05/22 06:25:52;;;;;;;;;;;;;;;19.95;51.75;99260.34;5063751;28;19923;-78
2023/05/22 06:28:18;;;;;;;;;;;;;;;19.84;50.04;99264.75;5076988;28;20332;-78
2023/05/22 06:30:43;;;;;;;;;;;;;;;19.85;51.65;99265.56;5071811;28;19920;-78
2023/05/22 06:33:08;;;;;;;;;;;;;;;19.84;52.00;99262.06;5075420;28;19908;-79
2023/05/22 06:35:34;;;;;;;;;;;;;;;19.86;52.27;99262.63;5069993;28;19908;-78
2023/05/22 06:37:59;;;;;;;;;;;;;;;19.85;52.18;99260.19;5077541;28;19966;-77
2023/05/22 06:40:25;;;;;;;;;;;;;;;19.84;51.99;99258.59;5076166;28;19924;-79
2023/05/22 06:42:51;;;;;;;;;;;;;;;19.83;52.19;99262.31;5078242;28;20278;-78
2023/05/22 06:45:18;;;;;;;;;;;;;;;19.88;52.79;99259.72;5076141;28;19920;-77
2023/05/22 06:47:44;;;;;;;;;;;;;;;19.93;52.50;99262.47;5077237;28;20406;-76
2023/05/22 06:50:10;;;;;;;;;;;;;;;19.97;52.29;99260.91;5069261;28;19959;-76
2023/05/22 06:52:35;;;;;;;;;;;;;;;20.07;52.11;99258.41;5071195;28;19935;-77
2023/05/22 06:55:04;;;;;;;;;;;;;;;20.23;52.43;99256.75;5068229;28;19919;-77
2023/05/22 06:57:32;;;;;;;;;;;;;;;20.35;52.11;99264.69;5073613;28;19916;-78
2023/05/22 06:59:58;;;;;;;;;;;;;;;20.41;51.83;99263.72;5078022;28;19908;-76
2023/05/22 07:02:23;;;;;;;;;;;;;;;20.43;51.43;99262.41;5076238;28;20388;-77
2023/05/22 07:04:48;;;;;;;;;;;;;;;20.41;51.27;99267.22;5072672;28;19938;-76
2023/05/22 07:07:13;;;;;;;;;;;;;;;20.49;51.36;99260.59;5070226;28;19956;-78
2023/05/22 07:09:39;;;;;;;;;;;;;;;20.60;51.11;99260.47;5073014;28;20494;-76
2023/05/22 07:12:05;;;;;;;;;;;;;;;20.70;50.52;99257.09;5059915;28;19952;-79
2023/05/22 07:14:30;;;;;;;;;;;;;;;20.74;50.77;99268.94;5062280;28;19999;-78
2023/05/22 07:16:55;;;;;;;;;;;;;;;20.84;49.74;99258.38;5073964;28;19909;-78
2023/05/22 07:19:21;;;;;;;;;;;;;;;20.90;50.53;99268.09;5066630;28;20006;-78
2023/05/22 07:21:46;;;;;;;;;;;;;;;20.98;50.61;99269.50;5066028;28;19919;-77
2023/05/22 07:24:11;;;;;;;;;;;;;;;21.02;50.66;99276.00;5066983;28;19931;-77
2023/05/22 07:26:37;;;;;;;;;;;;;;;21.08;50.37;99258.06;5053972;28;20370;-76
2023/05/22 07:29:03;;;;;;;;;;;;;;;21.11;49.30;99271.78;5055285;28;19917;-74
2023/05/22 07:31:28;;;;;;;;;;;;;;;21.11;50.26;99273.66;5073522;28;19919;-74
2023/05/22 07:33:53;;;;;;;;;;;;;;;21.08;49.87;99271.50;5072900;28;20313;-77
2023/05/22 07:36:19;;;;;;;;;;;;;;;21.09;50.33;99275.78;5061515;28;20382;-77
2023/05/22 07:38:45;;;;;;;;;;;;;;;21.08;50.29;99264.25;5074212;28;19951;-78
2023/05/22 07:41:10;;;;;;;;;;;;;;;21.05;49.67;99277.38;5063429;28;19912;-77
2023/05/22 07:43:35;;;;;;;;;;;;;;;20.99;47.82;99276.50;5069095;28;19962;-77
2023/05/22 07:46:01;;;;;;;;;;;;;;;21.06;48.74;99279.00;5070010;28;19973;-76
2023/05/22 07:48:26;;;;;;;;;;;;;;;21.13;48.75;99274.22;5070312;28;20397;-77
2023/05/22 07:50:51;;;;;;;;;;;;;;;21.27;47.97;99285.41;5067515;28;19994;-77
2023/05/22 07:53:16;;;;;;;;;;;;;;;21.36;48.46;99282.00;5073413;28;19912;-77
2023/05/22 07:55:42;;;;;;;;;;;;;;;21.45;47.71;99282.34;5072003;28;19920;-76
2023/05/22 07:58:09;;;;;;;;;;;;;;;21.63;48.86;99283.88;5073357;28;19912;-76
2023/05/22 08:00:35;;;;;;;;;;;;;;;21.75;48.24;99273.75;5071463;28;19944;-76
2023/05/22 08:03:00;;;;;;;;;;;;;;;21.81;47.23;99278.09;5069655;28;20009;-76
2023/05/22 08:05:25;;;;;;;;;;;;;;;21.89;46.26;99274.94;5060956;28;19923;-78
2023/05/22 08:07:51;;;;;;;;;;;;;;;22.03;47.69;99272.63;5069753;28;20397;-77
2023/05/22 08:10:16;;;;;;;;;;;;;;;22.16;45.67;99275.66;5066646;28;20588;-76
2023/05/22 08:12:41;;;;;;;;;;;;;;;22.30;45.92;99278.75;5066406;28;19916;-76
2023/05/22 08:15:07;;;;;;;;;;;;;;;22.44;47.30;99273.69;5071756;28;20383;-77
2023/05/22 08:17:32;;;;;;;;;;;;;;;22.57;47.35;99258.94;5072884;28;20026;-77
2023/05/22 08:19:58;;;;;;;;;;;;;;;22.61;46.39;99274.31;5061060;28;20308;-77
2023/05/22 08:22:23;;;;;;;;;;;;;;;22.63;44.43;99277.53;5055945;28;20375;-77
2023/05/22 08:24:48;;;;;;;;;;;;;;;22.63;45.17;99276.72;5060869;28;20368;-77
2023/05/22 08:27:14;;;;;;;;;;;;;;;22.63;44.91;99268.66;5063544;28;19928;-74
2023/05/22 08:29:39;;;;;;;;;;;;;;;22.67;46.68;99267.06;5059290;28;19916;-75
2023/05/22 08:32:05;;;;;;;;;;;;;;;22.71;45.82;99277.03;5068963;28;19912;-78
2023/05/22 08:34:31;;;;;;;;;;;;;;;22.76;45.73;99270.84;5070638;28;19920;-76
2023/05/22 08:36:57;;;;;;;;;;;;;;;22.71;45.85;99268.97;5069093;28;19912;-76
2023/05/22 08:39:23;;;;;;;;;;;;;;;22.72;46.42;99267.88;5071212;28;19912;-77
2023/05/22 08:41:48;;;;;;;;;;;;;;;22.67;46.44;99261.69;5067332;28;20382;-77
2023/05/22 08:44:13;;;;;;;;;;;;;;;22.72;45.56;99256.31;5068556;28;19912;-77
2023/05/22 08:46:40;;;;;;;;;;;;;;;22.81;45.60;99268.22;5070248;28;20381;-76
2023/05/22 08:49:07;;;;;;;;;;;;;;;22.91;44.98;99257.47;5069725;28;20293;-76
2023/05/22 08:51:36;;;;;;;;;;;;;;;23.12;44.05;99258.34;5063115;28;20007;-77
2023/05/22 08:54:03;;;;;;;;;;;;;;;23.11;43.37;99254.03;5057525;28;19956;-76
2023/05/22 08:56:29;;;;;;;;;;;;;;;23.20;43.61;99255.13;5070299;28;20003;-76
2023/05/22 08:58:54;;;;;;;;;;;;;;;23.45;43.64;99252.47;5058695;28;19919;-77
2023/05/22 09:01:21;;;;;;;;;;;;;;;23.62;42.48;99248.72;5062453;28;20384;-76
2023/05/22 09:03:49;;;;;;;;;;;;;;;23.80;42.82;99256.28;5064879;28;19912;-76
2023/05/22 09:06:15;;;;;;;;;;;;;;;23.88;42.53;99247.63;5056304;28;20003;-76
2023/05/22 09:08:41;;;;;;;;;;;;;;;24.03;40.02;99250.31;5058259;28;20074;-74
2023/05/22 09:11:06;;;;;;;;;;;;;;;24.18;41.34;99248.66;5068529;28;19916;-76
2023/05/22 09:13:32;;;;;;;;;;;;;;;24.36;40.24;99248.88;5056387;28;19912;-76
2023/05/22 09:15:58;;;;;;;;;;;;;;;24.36;41.78;99248.06;5064358;28;20400;-76
2023/05/22 09:18:26;;;;;;;;;;;;;;;24.22;43.36;99244.31;5061368;28;19970;-76
2023/05/22 09:20:51;;;;;;;;;;;;;;;24.27;41.52;99247.03;5062179;28;20655;-77
2023/05/22 09:23:17;;;;;;;;;;;;;;;24.55;39.91;99257.22;5062481;28;19935;-76
2023/05/22 09:25:43;;;;;;;;;;;;;;;24.82;39.21;99256.81;5057968;28;19920;-76
2023/05/22 09:28:10;;;;;;;;;;;;;;;24.93;39.66;99252.16;5059981;28;19966;-76
2023/05/22 09:30:35;;;;;;;;;;;;;;;25.08;36.75;99249.38;5064192;28;19912;-76
2023/05/22 09:33:00;;;;;;;;;;;;;;;25.19;35.18;99250.13;5064126;28;19916;-76
2023/05/22 09:35:26;;;;;;;;;;;;;;;25.32;36.69;99241.41;5068175;28;20355;-77
2023/05/22 09:37:53;;;;;;;;;;;;;;;25.40;35.20;99240.00;5065241;28;19905;-75
2023/05/22 09:40:19;;;;;;;;;;;;;;;25.66;37.22;99249.53;5064875;28;19913;-76
2023/05/22 09:42:44;;;;;;;;;;;;;;;25.74;34.15;99235.41;5060406;28;19978;-76
2023/05/22 09:45:10;;;;;;;;;;;;;;;25.85;36.10;99239.63;5056196;28;19916;-77
2023/05/22 09:47:35;;;;;;;;;;;;;;;26.08;36.16;99239.97;5068627;28;19955;-76
2023/05/22 09:50:03;;;;;;;;;;;;;;;25.95;34.46;99241.41;5069886;28;19934;-77
2023/05/22 09:52:31;;;;;;;;;;;;;;;26.08;36.60;99243.47;5062192;28;19965;-78
2023/05/22 09:54:58;;;;;;;;;;;;;;;26.27;34.97;99248.94;5055665;28;19923;-76
2023/05/22 09:57:25;;;;;;;;;;;;;;;26.48;35.35;99238.72;5053998;28;19912;-75
2023/05/22 09:59:56;;;;;;;;;;;;;;;26.34;34.30;99246.72;5050125;28;19913;-77
2023/05/22 10:02:21;;;;;;;;;;;;;;;26.05;36.64;99237.84;5047221;28;19948;-77
2023/05/22 10:04:48;;;;;;;;;;;;;;;25.87;36.70;99237.44;5042657;28;20013;-77
2023/05/22 10:07:14;;;;;;;;;;;;;;;25.91;37.46;99234.97;5038016;28;19916;-77
2023/05/22 10:09:41;;;;;;;;;;;;;;;25.93;37.18;99236.28;5047172;28;20370;-78
2023/05/22 10:12:07;;;;;;;;;;;;;;;25.96;35.80;99237.63;5051174;28;19991;-78
2023/05/22 10:14:33;;;;;;;;;;;;;;;25.95;34.88;99234.09;5049140;28;19917;-77
2023/05/22 10:17:03;;;;;;;;;;;;;;;26.06;37.60;99226.72;5050214;28;19962;-78
2023/05/22 10:19:30;;;;;;;;;;;;;;;26.22;34.65;99220.03;5041460;28;20407;-78
2023/05/22 10:21:56;;;;;;;;;;;;;;;26.51;36.03;99208.34;5034863;28;19952;-78
2023/05/22 10:24:23;;;;;;;;;;;;;;;26.84;36.27;99217.41;5041711;28;19913;-78
2023/05/22 10:26:49;;;;;;;;;;;;;;;26.83;36.34;99210.38;5050941;28;19908;-79
2023/05/22 10:29:16;;;;;;;;;;;;;;;26.73;37.06;99213.19;5047626;28;19924;-78
2023/05/22 10:31:44;;;;;;;;;;;;;;;26.62;37.06;99209.81;5044465;28;19917;-78
2023/05/22 10:34:11;;;;;;;;;;;;;;;26.38;36.27;99218.00;5043764;28;20393;-79
2023/05/22 10:36:44;;;;;;;;;;;;;;;26.19;36.38;99209.00;5047797;28;19920;-78
2023/05/22 10:39:12;;;;;;;;;;;;;;;26.14;37.46;99206.34;5052615;28;21220;-79
2023/05/22 10:41:37;;;;;;;;;;;;;;;25.97;36.66;99207.56;5050185;28;19943;-79
2023/05/22 10:44:02;;;;;;;;;;;;;;;25.92;37.47;99202.22;5034352;28;19941;-78
2023/05/22 10:46:31;;;;;;;;;;;;;;;25.75;36.01;99198.34;5054277;28;19913;-79
2023/05/22 10:48:56;;;;;;;;;;;;;;;25.64;37.29;99200.31;5052123;28;20374;-79
2023/05/22 10:51:21;;;;;;;;;;;;;;;25.62;37.77;99197.09;5053122;28;19915;-77
2023/05/22 10:53:52;;;;;;;;;;;;;;;25.76;37.40;99195.34;5050306;28;19921;-78
2023/05/22 10:56:17;;;;;;;;;;;;;;;25.86;37.08;99186.34;5053169;28;20304;-79
2023/05/22 10:58:44;;;;;;;;;;;;;;;26.01;37.26;99183.50;5052321;28;19999;-78
2023/05/22 11:01:09;;;;;;;;;;;;;;;26.27;37.09;99176.69;5053176;28;20019;-79
2023/05/22 11:03:53;;;;;;;;;;;;;;;26.32;36.84;99183.94;5053734;28;19995;-79
2023/05/22 11:06:31;;;;;;;;;;;;;;;26.30;37.90;99180.69;5054302;28;20309;-78
2023/05/22 11:08:56;;;;;;;;;;;;;;;26.43;36.95;99171.09;5050942;28;19920;-79
2023/05/22 11:11:26;;;;;;;;;;;;;;;26.62;36.59;99169.19;5042338;28;19913;-78
2023/05/22 11:13:52;;;;;;;;;;;;;;;26.77;37.51;99160.09;5043615;28;20363;-78
2023/05/22 11:16:18;;;;;;;;;;;;;;;26.74;36.78;99157.94;5034312;28;20297;-78
2023/05/22 11:18:43;;;;;;;;;;;;;;;26.73;36.53;99156.31;5034239;28;19909;-78
2023/05/22 11:21:10;;;;;;;;;;;;;;;26.77;36.68;99146.53;5043885;28;20040;-78
2023/05/22 11:23:36;;;;;;;;;;;;;;;27.00;36.08;99142.94;5049488;28;19912;-77
2023/05/22 11:26:21;;;;;;;;;;;;;;;27.29;35.55;99150.06;5052146;28;19923;-78
2023/05/22 11:28:50;;;;;;;;;;;;;;;27.31;36.01;99143.25;5033947;28;19923;-77
2023/05/22 11:31:16;;;;;;;;;;;;;;;27.46;36.81;99140.25;5047716;28;19912;-79
2023/05/22 11:33:42;;;;;;;;;;;;;;;27.45;35.55;99138.66;5050987;28;19912;-78
2023/05/22 11:36:08;;;;;;;;;;;;;;;27.57;35.36;99140.91;5051088;28;20351;-78
2023/05/22 11:38:33;;;;;;;;;;;;;;;27.53;34.57;99138.00;5049583;28;19921;-77
2023/05/22 11:40:58;;;;;;;;;;;;;;;27.61;36.21;99144.66;5044527;28;19912;-78
2023/05/22 11:43:28;;;;;;;;;;;;;;;27.80;35.88;99131.00;5051212;28;19965;-78
2023/05/22 11:45:53;;;;;;;;;;;;;;;27.89;34.49;99131.91;5052294;28;20007;-79
2023/05/22 11:48:19;;;;;;;;;;;;;;;27.87;33.89;99136.84;5051532;28;20449;-78
2023/05/22 11:50:45;;;;;;;;;;;;;;;28.11;34.10;99133.91;5050130;28;19909;-78
2023/05/22 11:53:11;;;;;;;;;;;;;;;28.33;31.95;99130.50;5051112;28;20362;-78
2023/05/22 11:55:36;;;;;;;;;;;;;;;28.45;32.88;99122.63;5050853;28;19912;-78
2023/05/22 11:58:01;;;;;;;;;;;;;;;28.53;32.62;99130.06;5052746;28;20415;-78
2023/05/22 12:00:28;;;;;;;;;;;;;;;28.62;32.13;99121.97;5047777;28;19927;-79
2023/05/22 12:02:53;;;;;;;;;;;;;;;28.80;32.70;99131.88;5050395;28;19912;-77
2023/05/22 12:05:19;;;;;;;;;;;;;;;28.56;33.25;99131.38;5052279;28;20393;-77
2023/05/22 12:07:44;;;;;;;;;;;;;;;28.67;33.38;99130.00;5051842;28;20305;-77
2023/05/22 12:10:10;;;;;;;;;;;;;;;28.66;34.66;99123.78;5047100;28;19913;-77
2023/05/22 12:12:35;;;;;;;;;;;;;;;28.78;32.20;99123.22;5051677;28;19917;-78
2023/05/22 12:15:03;;;;;;;;;;;;;;;29.06;32.04;99119.34;5051535;28;19913;-77
2023/05/22 12:17:29;;;;;;;;;;;;;;;29.18;31.62;99107.88;5044465;28;19955;-79
2023/05/22 12:19:54;;;;;;;;;;;;;;;29.37;31.87;99107.66;5051672;28;20006;-78
2023/05/22 12:22:22;;;;;;;;;;;;;;;29.38;32.72;99107.34;5050455;28;19912;-79
2023/05/22 12:24:50;;;;;;;;;;;;;;;29.49;33.04;99102.47;5052455;28;19917;-76
2023/05/22 12:27:15;;;;;;;;;;;;;;;29.67;32.79;99095.19;5047104;28;19912;-78
2023/05/22 12:29:41;;;;;;;;;;;;;;;29.81;30.24;99095.91;5050556;28;19919;-78
2023/05/22 12:32:08;;;;;;;;;;;;;;;29.63;33.04;99091.50;5051261;28;20027;-79
2023/05/22 12:34:34;;;;;;;;;;;;;;;29.31;33.22;99084.44;5049354;28;19920;-78
2023/05/22 12:37:00;;;;;;;;;;;;;;;28.85;32.72;99082.88;5050171;28;19919;-75
2023/05/22 12:39:27;;;;;;;;;;;;;;;28.46;34.08;99081.59;5052398;28;19999;-78
2023/05/22 12:41:52;;;;;;;;;;;;;;;28.01;34.51;99091.50;5041934;28;19917;-76
2023/05/22 12:44:17;;;;;;;;;;;;;;;27.60;34.34;99086.06;5032408;28;19915;-78